sensor_id;sensor_type;location;lat;lon;timestamp;temperature;humidity
13464;DHT22;6804;48.774;9.174;2023-10-19T00:00:56;13.20;99.90
13464;DHT22;6804;48.774;9.174;2023-10-19T00:03:25;13.20;99.90
13464;DHT22;6804;48.774;9.174;2023-10-19T00:05:56;13.20;99.90
13464;DHT22;6804;48.774;9.174;2023-10-19T00:08:24;13.20;99.90
13464;DHT22;6804;48.774;9.174;2023-10-19T00:10:53;13.20;99.90
13464;DHT22;6804;48.774;9.174;2023-10-19T00:13:29;13.20;99.90
13464;DHT22;6804;48.774;9.174;2023-10-19T00:15:56;13.20;99.90
13464;DHT22;6804;48.774;9.174;2023-10-19T00:18:27;13.20;99.90
13464;DHT22;6804;48.774;9.174;2023-10-19T00:20:54;13.20;99.90
13464;DHT22;6804;48.774;9.174;2023-10-19T00:23:38;13.20;99.90
13464;DHT22;6804;48.774;9.174;2023-10-19T00:26:07;13.30;99.90
13464;DHT22;6804;48.774;9.174;2023-10-19T00:28:41;13.20;99.90
13464;DHT22;6804;48.774;9.174;2023-10-19T00:31:12;13.30;99.90
13464;DHT22;6804;48.774;9.174;2023-10-19T00:33:40;13.30;99.90
13464;DHT22;6804;48.774;9.174;2023-10-19T00:36:08;13.30;99.90
13464;DHT22;6804;48.774;9.174;2023-10-19T00:38:39;13.30;99.90
13464;DHT22;6804;48.774;9.174;2023-10-19T00:41:17;13.30;99.90
13464;DHT22;6804;48.774;9.174;2023-10-19T00:43:49;13.30;99.90
13464;DHT22;6804;48.774;9.174;2023-10-19T00:46:25;13.30;99.90
13464;DHT22;6804;48.774;9.174;2023-10-19T00:49:02;13.30;99.90
13464;DHT22;6804;48.774;9.174;2023-10-19T00:51:35;13.40;99.90
13464;DHT22;6804;48.774;9.174;2023-10-19T00:54:25;13.40;99.90
13464;DHT22;6804;48.774;9.174;2023-10-19T00:56:59;13.40;99.90
13464;DHT22;6804;48.774;9.174;2023-10-19T00:59:30;13.40;99.90
13464;DHT22;6804;48.774;9.174;2023-10-19T01:02:05;13.50;99.90
13464;DHT22;6804;48.774;9.174;2023-10-19T01:04:50;13.50;99.90
13464;DHT22;6804;48.774;9.174;2023-10-19T01:07:25;13.50;99.90
13464;DHT22;6804;48.774;9.174;2023-10-19T01:09:56;13.50;99.90
13464;DHT22;6804;48.774;9.174;2023-10-19T01:12:27;13.50;99.90
13464;DHT22;6804;48.774;9.174;2023-10-19T01:15:08;13.60;99.90
13464;DHT22;6804;48.774;9.174;2023-10-19T01:17:46;13.60;99.90
13464;DHT22;6804;48.774;9.174;2023-10-19T01:20:29;13.60;99.90
13464;DHT22;6804;48.774;9.174;2023-10-19T01:23:11;13.60;99.90
13464;DHT22;6804;48.774;9.174;2023-10-19T01:25:50;13.60;99.90
13464;DHT22;6804;48.774;9.174;2023-10-19T01:28:29;13.70;99.90
13464;DHT22;6804;48.774;9.174;2023-10-19T01:31:08;13.70;99.90
13464;DHT22;6804;48.774;9.174;2023-10-19T01:33:40;13.70;99.90
13464;DHT22;6804;48.774;9.174;2023-10-19T01:36:09;13.70;99.90
13464;DHT22;6804;48.774;9.174;2023-10-19T01:38:55;13.70;99.90
13464;DHT22;6804;48.774;9.174;2023-10-19T01:41:27;13.70;99.90
13464;DHT22;6804;48.774;9.174;2023-10-19T01:43:56;13.80;99.90
13464;DHT22;6804;48.774;9.174;2023-10-19T01:46:30;13.80;99.90
13464;DHT22;6804;48.774;9.174;2023-10-19T01:49:00;13.80;99.90
13464;DHT22;6804;48.774;9.174;2023-10-19T01:51:29;13.80;99.90
13464;DHT22;6804;48.774;9.174;2023-10-19T01:54:00;13.80;99.90
13464;DHT22;6804;48.774;9.174;2023-10-19T01:56:30;13.80;99.90
13464;DHT22;6804;48.774;9.174;2023-10-19T01:58:57;13.90;99.90
13464;DHT22;6804;48.774;9.174;2023-10-19T02:01:28;13.90;99.90
13464;DHT22;6804;48.774;9.174;2023-10-19T02:03:59;13.90;99.90
13464;DHT22;6804;48.774;9.174;2023-10-19T02:06:27;14.00;99.90
13464;DHT22;6804;48.774;9.174;2023-10-19T02:09:04;14.00;99.90
13464;DHT22;6804;48.774;9.174;2023-10-19T02:11:49;13.90;99.90
13464;DHT22;6804;48.774;9.174;2023-10-19T02:14:21;14.00;99.90
13464;DHT22;6804;48.774;9.174;2023-10-19T02:16:49;14.00;99.90
13464;DHT22;6804;48.774;9.174;2023-10-19T02:19:19;14.00;99.90
13464;DHT22;6804;48.774;9.174;2023-10-19T02:21:53;14.00;99.90
13464;DHT22;6804;48.774;9.174;2023-10-19T02:24:26;14.00;99.90
13464;DHT22;6804;48.774;9.174;2023-10-19T02:26:54;14.00;99.90
13464;DHT22;6804;48.774;9.174;2023-10-19T02:29:21;14.00;99.90
13464;DHT22;6804;48.774;9.174;2023-10-19T02:31:48;14.00;99.90
13464;DHT22;6804;48.774;9.174;2023-10-19T02:34:19;14.00;99.90
13464;DHT22;6804;48.774;9.174;2023-10-19T02:36:48;14.10;99.90
13464;DHT22;6804;48.774;9.174;2023-10-19T02:39:17;14.00;99.90
13464;DHT22;6804;48.774;9.174;2023-10-19T02:41:48;13.90;99.90
13464;DHT22;6804;48.774;9.174;2023-10-19T02:44:18;13.70;99.90
13464;DHT22;6804;48.774;9.174;2023-10-19T02:46:53;13.60;99.90
13464;DHT22;6804;48.774;9.174;2023-10-19T02:49:24;13.50;99.90
13464;DHT22;6804;48.774;9.174;2023-10-19T02:51:58;13.50;99.90
13464;DHT22;6804;48.774;9.174;2023-10-19T02:54:29;13.50;99.90
13464;DHT22;6804;48.774;9.174;2023-10-19T02:57:00;13.60;99.90
13464;DHT22;6804;48.774;9.174;2023-10-19T02:59:32;13.50;99.90
13464;DHT22;6804;48.774;9.174;2023-10-19T03:02:00;13.50;99.90
13464;DHT22;6804;48.774;9.174;2023-10-19T03:04:33;13.40;99.90
13464;DHT22;6804;48.774;9.174;2023-10-19T03:07:01;13.30;99.90
13464;DHT22;6804;48.774;9.174;2023-10-19T03:09:28;13.40;99.90
13464;DHT22;6804;48.774;9.174;2023-10-19T03:11:57;13.30;99.90
13464;DHT22;6804;48.774;9.174;2023-10-19T03:14:32;13.30;99.90
13464;DHT22;6804;48.774;9.174;2023-10-19T03:16:59;13.30;99.90
13464;DHT22;6804;48.774;9.174;2023-10-19T03:19:30;13.20;99.90
13464;DHT22;6804;48.774;9.174;2023-10-19T03:22:00;13.10;99.90
13464;DHT22;6804;48.774;9.174;2023-10-19T03:24:27;13.00;99.90
13464;DHT22;6804;48.774;9.174;2023-10-19T03:27:07;12.90;99.90
13464;DHT22;6804;48.774;9.174;2023-10-19T03:29:41;12.80;99.90
13464;DHT22;6804;48.774;9.174;2023-10-19T03:32:11;12.80;99.90
13464;DHT22;6804;48.774;9.174;2023-10-19T03:34:41;12.80;99.90
13464;DHT22;6804;48.774;9.174;2023-10-19T03:37:13;12.70;99.90
13464;DHT22;6804;48.774;9.174;2023-10-19T03:39:41;12.80;99.90
13464;DHT22;6804;48.774;9.174;2023-10-19T03:42:13;12.80;99.90
13464;DHT22;6804;48.774;9.174;2023-10-19T03:44:44;12.80;99.90
13464;DHT22;6804;48.774;9.174;2023-10-19T03:47:16;12.90;99.90
13464;DHT22;6804;48.774;9.174;2023-10-19T03:49:52;12.90;99.90
13464;DHT22;6804;48.774;9.174;2023-10-19T03:52:20;13.00;99.90
13464;DHT22;6804;48.774;9.174;2023-10-19T03:57:56;13.10;99.90
13464;DHT22;6804;48.774;9.174;2023-10-19T04:00:29;13.10;99.90
13464;DHT22;6804;48.774;9.174;2023-10-19T04:02:59;13.20;99.90
13464;DHT22;6804;48.774;9.174;2023-10-19T04:05:28;13.20;99.90
13464;DHT22;6804;48.774;9.174;2023-10-19T04:08:00;13.20;99.90
13464;DHT22;6804;48.774;9.174;2023-10-19T04:10:39;13.30;99.90
13464;DHT22;6804;48.774;9.174;2023-10-19T04:13:11;13.30;99.90
13464;DHT22;6804;48.774;9.174;2023-10-19T04:15:42;13.30;99.90
13464;DHT22;6804;48.774;9.174;2023-10-19T04:18:13;13.40;99.90
13464;DHT22;6804;48.774;9.174;2023-10-19T04:20:42;13.40;99.90
13464;DHT22;6804;48.774;9.174;2023-10-19T04:23:21;13.40;99.90
13464;DHT22;6804;48.774;9.174;2023-10-19T04:25:53;13.40;99.90
13464;DHT22;6804;48.774;9.174;2023-10-19T04:28:26;13.30;99.90
13464;DHT22;6804;48.774;9.174;2023-10-19T04:31:05;13.30;99.90
13464;DHT22;6804;48.774;9.174;2023-10-19T04:33:34;13.30;99.90
13464;DHT22;6804;48.774;9.174;2023-10-19T04:36:02;13.30;99.90
13464;DHT22;6804;48.774;9.174;2023-10-19T04:38:31;13.30;99.90
13464;DHT22;6804;48.774;9.174;2023-10-19T04:41:06;13.30;99.90
13464;DHT22;6804;48.774;9.174;2023-10-19T04:43:40;13.10;99.90
13464;DHT22;6804;48.774;9.174;2023-10-19T04:46:18;13.00;99.90
13464;DHT22;6804;48.774;9.174;2023-10-19T04:48:56;13.00;99.90
13464;DHT22;6804;48.774;9.174;2023-10-19T04:51:25;13.00;99.90
13464;DHT22;6804;48.774;9.174;2023-10-19T04:53:56;13.10;99.90
13464;DHT22;6804;48.774;9.174;2023-10-19T04:56:25;13.10;99.90
13464;DHT22;6804;48.774;9.174;2023-10-19T04:58:55;13.20;99.90
13464;DHT22;6804;48.774;9.174;2023-10-19T05:01:25;13.10;99.90
13464;DHT22;6804;48.774;9.174;2023-10-19T05:03:54;13.10;99.90
13464;DHT22;6804;48.774;9.174;2023-10-19T05:06:21;13.20;99.90
13464;DHT22;6804;48.774;9.174;2023-10-19T05:08:50;13.20;99.90
13464;DHT22;6804;48.774;9.174;2023-10-19T05:11:23;13.20;99.90
13464;DHT22;6804;48.774;9.174;2023-10-19T05:13:52;13.20;99.90
13464;DHT22;6804;48.774;9.174;2023-10-19T05:16:24;13.20;99.90
13464;DHT22;6804;48.774;9.174;2023-10-19T05:18:53;13.10;99.90
13464;DHT22;6804;48.774;9.174;2023-10-19T05:21:22;12.90;99.90
13464;DHT22;6804;48.774;9.174;2023-10-19T05:23:52;12.90;99.90
13464;DHT22;6804;48.774;9.174;2023-10-19T05:26:22;12.90;99.90
13464;DHT22;6804;48.774;9.174;2023-10-19T05:28:51;13.00;99.90
13464;DHT22;6804;48.774;9.174;2023-10-19T05:31:21;12.90;99.90
13464;DHT22;6804;48.774;9.174;2023-10-19T05:33:52;12.90;99.90
13464;DHT22;6804;48.774;9.174;2023-10-19T05:36:22;13.00;99.90
13464;DHT22;6804;48.774;9.174;2023-10-19T05:38:51;13.00;99.90
13464;DHT22;6804;48.774;9.174;2023-10-19T05:41:19;13.00;99.90
13464;DHT22;6804;48.774;9.174;2023-10-19T05:43:49;13.00;99.90
13464;DHT22;6804;48.774;9.174;2023-10-19T05:46:17;12.90;99.90
13464;DHT22;6804;48.774;9.174;2023-10-19T05:48:47;12.90;99.90
13464;DHT22;6804;48.774;9.174;2023-10-19T05:51:16;12.90;99.90
13464;DHT22;6804;48.774;9.174;2023-10-19T05:53:45;13.00;99.90
13464;DHT22;6804;48.774;9.174;2023-10-19T05:56:15;13.00;99.90
13464;DHT22;6804;48.774;9.174;2023-10-19T05:58:47;13.00;99.90
13464;DHT22;6804;48.774;9.174;2023-10-19T06:01:16;13.00;99.90
13464;DHT22;6804;48.774;9.174;2023-10-19T06:03:47;13.00;99.90
13464;DHT22;6804;48.774;9.174;2023-10-19T06:06:16;12.90;99.90
13464;DHT22;6804;48.774;9.174;2023-10-19T06:08:46;12.90;99.90
13464;DHT22;6804;48.774;9.174;2023-10-19T06:11:13;13.00;99.90
13464;DHT22;6804;48.774;9.174;2023-10-19T06:13:41;13.00;99.90
13464;DHT22;6804;48.774;9.174;2023-10-19T06:16:09;13.10;99.90
13464;DHT22;6804;48.774;9.174;2023-10-19T06:18:36;13.00;99.90
13464;DHT22;6804;48.774;9.174;2023-10-19T06:21:07;13.00;99.90
13464;DHT22;6804;48.774;9.174;2023-10-19T06:23:37;13.00;99.90
13464;DHT22;6804;48.774;9.174;2023-10-19T06:26:09;13.00;99.90
13464;DHT22;6804;48.774;9.174;2023-10-19T06:28:41;13.00;99.90
13464;DHT22;6804;48.774;9.174;2023-10-19T06:31:10;13.00;99.90
13464;DHT22;6804;48.774;9.174;2023-10-19T06:33:41;13.00;99.90
13464;DHT22;6804;48.774;9.174;2023-10-19T06:36:11;13.00;99.90
13464;DHT22;6804;48.774;9.174;2023-10-19T06:38:42;12.90;99.90
13464;DHT22;6804;48.774;9.174;2023-10-19T06:41:11;12.90;99.90
13464;DHT22;6804;48.774;9.174;2023-10-19T06:44:05;12.80;99.90
13464;DHT22;6804;48.774;9.174;2023-10-19T06:46:37;12.80;99.90
13464;DHT22;6804;48.774;9.174;2023-10-19T06:49:07;12.80;99.90
13464;DHT22;6804;48.774;9.174;2023-10-19T06:51:37;12.80;99.90
13464;DHT22;6804;48.774;9.174;2023-10-19T06:54:10;12.80;99.90
13464;DHT22;6804;48.774;9.174;2023-10-19T06:56:39;12.80;99.90
13464;DHT22;6804;48.774;9.174;2023-10-19T06:59:09;12.80;99.90
13464;DHT22;6804;48.774;9.174;2023-10-19T07:01:38;12.80;99.90
13464;DHT22;6804;48.774;9.174;2023-10-19T07:04:08;12.80;99.90
13464;DHT22;6804;48.774;9.174;2023-10-19T07:06:37;12.80;99.90
13464;DHT22;6804;48.774;9.174;2023-10-19T07:09:07;12.80;99.90
13464;DHT22;6804;48.774;9.174;2023-10-19T07:11:38;12.80;99.90
13464;DHT22;6804;48.774;9.174;2023-10-19T07:14:05;12.80;99.90
13464;DHT22;6804;48.774;9.174;2023-10-19T07:16:34;12.80;99.90
13464;DHT22;6804;48.774;9.174;2023-10-19T07:19:02;12.80;99.90
13464;DHT22;6804;48.774;9.174;2023-10-19T07:21:36;12.90;99.90
13464;DHT22;6804;48.774;9.174;2023-10-19T07:24:10;13.00;99.90
13464;DHT22;6804;48.774;9.174;2023-10-19T07:26:42;13.10;99.90
13464;DHT22;6804;48.774;9.174;2023-10-19T07:29:19;13.20;99.90
13464;DHT22;6804;48.774;9.174;2023-10-19T07:31:47;13.10;99.90
13464;DHT22;6804;48.774;9.174;2023-10-19T07:34:15;13.10;99.90
13464;DHT22;6804;48.774;9.174;2023-10-19T07:36:44;13.10;99.90
13464;DHT22;6804;48.774;9.174;2023-10-19T07:39:16;13.10;99.90
13464;DHT22;6804;48.774;9.174;2023-10-19T07:41:53;13.10;99.90
13464;DHT22;6804;48.774;9.174;2023-10-19T07:44:23;13.20;99.90
13464;DHT22;6804;48.774;9.174;2023-10-19T07:46:52;13.20;99.90
13464;DHT22;6804;48.774;9.174;2023-10-19T07:49:22;13.30;99.90
13464;DHT22;6804;48.774;9.174;2023-10-19T07:51:52;13.40;99.90
13464;DHT22;6804;48.774;9.174;2023-10-19T07:54:22;13.50;99.90
13464;DHT22;6804;48.774;9.174;2023-10-19T07:56:50;13.60;99.90
13464;DHT22;6804;48.774;9.174;2023-10-19T07:59:20;13.70;99.90
13464;DHT22;6804;48.774;9.174;2023-10-19T08:01:48;13.80;99.90
13464;DHT22;6804;48.774;9.174;2023-10-19T08:04:18;13.80;99.90
13464;DHT22;6804;48.774;9.174;2023-10-19T08:06:49;13.90;99.90
13464;DHT22;6804;48.774;9.174;2023-10-19T08:09:17;13.90;99.90
13464;DHT22;6804;48.774;9.174;2023-10-19T08:11:52;14.00;99.90
13464;DHT22;6804;48.774;9.174;2023-10-19T08:14:24;14.20;99.90
13464;DHT22;6804;48.774;9.174;2023-10-19T08:16:56;14.30;99.90
13464;DHT22;6804;48.774;9.174;2023-10-19T08:19:28;14.40;99.90
13464;DHT22;6804;48.774;9.174;2023-10-19T08:21:57;14.30;99.90
13464;DHT22;6804;48.774;9.174;2023-10-19T08:24:25;14.30;99.90
13464;DHT22;6804;48.774;9.174;2023-10-19T08:26:59;14.40;99.90
13464;DHT22;6804;48.774;9.174;2023-10-19T08:29:28;14.60;99.90
13464;DHT22;6804;48.774;9.174;2023-10-19T08:32:00;14.80;99.90
13464;DHT22;6804;48.774;9.174;2023-10-19T08:34:33;15.00;99.90
13464;DHT22;6804;48.774;9.174;2023-10-19T08:37:01;15.30;99.90
13464;DHT22;6804;48.774;9.174;2023-10-19T08:39:30;15.50;99.90
13464;DHT22;6804;48.774;9.174;2023-10-19T08:42:02;15.50;99.90
13464;DHT22;6804;48.774;9.174;2023-10-19T08:44:34;15.60;99.90
13464;DHT22;6804;48.774;9.174;2023-10-19T08:47:02;15.70;99.90
13464;DHT22;6804;48.774;9.174;2023-10-19T08:49:32;15.80;99.90
13464;DHT22;6804;48.774;9.174;2023-10-19T08:52:00;15.80;99.90
13464;DHT22;6804;48.774;9.174;2023-10-19T08:54:32;15.90;99.90
13464;DHT22;6804;48.774;9.174;2023-10-19T08:57:01;15.90;99.90
13464;DHT22;6804;48.774;9.174;2023-10-19T08:59:31;16.10;99.90
13464;DHT22;6804;48.774;9.174;2023-10-19T09:02:03;16.10;99.90
13464;DHT22;6804;48.774;9.174;2023-10-19T09:04:33;16.00;99.90
13464;DHT22;6804;48.774;9.174;2023-10-19T09:07:10;16.10;99.90
13464;DHT22;6804;48.774;9.174;2023-10-19T09:09:45;16.30;99.90
13464;DHT22;6804;48.774;9.174;2023-10-19T09:12:13;16.60;99.90
13464;DHT22;6804;48.774;9.174;2023-10-19T09:14:45;16.80;99.90
13464;DHT22;6804;48.774;9.174;2023-10-19T09:17:12;17.00;99.90
13464;DHT22;6804;48.774;9.174;2023-10-19T09:19:42;17.10;99.90
13464;DHT22;6804;48.774;9.174;2023-10-19T09:22:11;17.40;99.90
13464;DHT22;6804;48.774;9.174;2023-10-19T09:24:51;17.50;99.90
13464;DHT22;6804;48.774;9.174;2023-10-19T09:27:24;17.70;99.90
13464;DHT22;6804;48.774;9.174;2023-10-19T09:29:53;17.80;99.90
13464;DHT22;6804;48.774;9.174;2023-10-19T09:32:23;17.80;99.90
13464;DHT22;6804;48.774;9.174;2023-10-19T09:34:52;17.90;99.90
13464;DHT22;6804;48.774;9.174;2023-10-19T09:37:23;17.90;99.90
13464;DHT22;6804;48.774;9.174;2023-10-19T09:40:10;17.80;99.90
13464;DHT22;6804;48.774;9.174;2023-10-19T09:42:40;17.70;99.90
13464;DHT22;6804;48.774;9.174;2023-10-19T09:45:18;17.80;99.90
13464;DHT22;6804;48.774;9.174;2023-10-19T09:47:50;18.00;99.90
13464;DHT22;6804;48.774;9.174;2023-10-19T09:50:22;18.20;99.90
13464;DHT22;6804;48.774;9.174;2023-10-19T09:52:54;18.30;99.90
13464;DHT22;6804;48.774;9.174;2023-10-19T09:55:27;18.40;99.90
13464;DHT22;6804;48.774;9.174;2023-10-19T09:58:02;18.30;99.90
13464;DHT22;6804;48.774;9.174;2023-10-19T10:00:31;18.30;99.90
13464;DHT22;6804;48.774;9.174;2023-10-19T10:03:03;18.20;99.90
13464;DHT22;6804;48.774;9.174;2023-10-19T10:05:47;18.10;99.90
13464;DHT22;6804;48.774;9.174;2023-10-19T10:08:32;18.10;99.90
13464;DHT22;6804;48.774;9.174;2023-10-19T10:11:15;18.10;99.90
13464;DHT22;6804;48.774;9.174;2023-10-19T10:13:45;18.10;99.90
13464;DHT22;6804;48.774;9.174;2023-10-19T10:16:22;18.00;99.90
13464;DHT22;6804;48.774;9.174;2023-10-19T10:18:51;18.00;99.90
13464;DHT22;6804;48.774;9.174;2023-10-19T10:21:23;18.00;99.90
13464;DHT22;6804;48.774;9.174;2023-10-19T10:23:55;18.00;99.90
13464;DHT22;6804;48.774;9.174;2023-10-19T10:26:25;18.00;99.90
13464;DHT22;6804;48.774;9.174;2023-10-19T10:29:11;17.90;99.90
13464;DHT22;6804;48.774;9.174;2023-10-19T10:31:46;17.90;99.90
13464;DHT22;6804;48.774;9.174;2023-10-19T10:34:43;17.90;99.90
13464;DHT22;6804;48.774;9.174;2023-10-19T10:37:13;17.90;99.90
13464;DHT22;6804;48.774;9.174;2023-10-19T10:39:44;17.90;99.90
13464;DHT22;6804;48.774;9.174;2023-10-19T10:42:12;17.90;99.90
13464;DHT22;6804;48.774;9.174;2023-10-19T10:44:46;17.90;99.90
13464;DHT22;6804;48.774;9.174;2023-10-19T10:47:21;17.80;99.90
13464;DHT22;6804;48.774;9.174;2023-10-19T10:49:54;17.80;99.90
13464;DHT22;6804;48.774;9.174;2023-10-19T10:52:32;17.80;99.90
13464;DHT22;6804;48.774;9.174;2023-10-19T10:55:08;17.80;99.90
13464;DHT22;6804;48.774;9.174;2023-10-19T10:57:37;17.80;99.90
13464;DHT22;6804;48.774;9.174;2023-10-19T11:00:07;17.80;99.90
13464;DHT22;6804;48.774;9.174;2023-10-19T11:02:37;17.80;99.90
13464;DHT22;6804;48.774;9.174;2023-10-19T11:05:10;17.70;99.90
13464;DHT22;6804;48.774;9.174;2023-10-19T11:08:05;17.70;99.90
13464;DHT22;6804;48.774;9.174;2023-10-19T11:10:35;17.70;99.90
13464;DHT22;6804;48.774;9.174;2023-10-19T11:13:05;17.70;99.90
13464;DHT22;6804;48.774;9.174;2023-10-19T11:15:34;17.70;99.90
13464;DHT22;6804;48.774;9.174;2023-10-19T11:18:05;17.70;99.90
13464;DHT22;6804;48.774;9.174;2023-10-19T11:20:34;17.70;99.90
13464;DHT22;6804;48.774;9.174;2023-10-19T11:23:02;17.70;99.90
13464;DHT22;6804;48.774;9.174;2023-10-19T11:25:33;17.60;99.90
13464;DHT22;6804;48.774;9.174;2023-10-19T11:28:07;17.60;99.90
13464;DHT22;6804;48.774;9.174;2023-10-19T11:30:43;17.60;99.90
13464;DHT22;6804;48.774;9.174;2023-10-19T11:33:16;17.60;99.90
13464;DHT22;6804;48.774;9.174;2023-10-19T11:36:08;17.60;99.90
13464;DHT22;6804;48.774;9.174;2023-10-19T11:38:42;17.50;99.90
13464;DHT22;6804;48.774;9.174;2023-10-19T11:41:13;17.50;99.90
13464;DHT22;6804;48.774;9.174;2023-10-19T11:43:43;17.50;99.90
13464;DHT22;6804;48.774;9.174;2023-10-19T11:46:11;17.50;99.90
13464;DHT22;6804;48.774;9.174;2023-10-19T11:48:45;17.40;99.90
13464;DHT22;6804;48.774;9.174;2023-10-19T11:51:15;17.40;99.90
13464;DHT22;6804;48.774;9.174;2023-10-19T11:53:46;17.40;99.90
13464;DHT22;6804;48.774;9.174;2023-10-19T11:56:16;17.40;99.90
13464;DHT22;6804;48.774;9.174;2023-10-19T11:58:46;17.40;99.90
13464;DHT22;6804;48.774;9.174;2023-10-19T12:01:19;17.30;99.90
13464;DHT22;6804;48.774;9.174;2023-10-19T12:03:48;17.30;99.90
13464;DHT22;6804;48.774;9.174;2023-10-19T12:06:17;17.30;99.90
13464;DHT22;6804;48.774;9.174;2023-10-19T12:08:48;17.20;99.90
13464;DHT22;6804;48.774;9.174;2023-10-19T12:11:16;17.20;99.90
13464;DHT22;6804;48.774;9.174;2023-10-19T12:13:45;17.20;99.90
13464;DHT22;6804;48.774;9.174;2023-10-19T12:16:15;17.20;99.90
13464;DHT22;6804;48.774;9.174;2023-10-19T12:18:44;17.20;99.90
13464;DHT22;6804;48.774;9.174;2023-10-19T12:21:16;17.20;99.90
13464;DHT22;6804;48.774;9.174;2023-10-19T12:23:44;17.20;99.90
13464;DHT22;6804;48.774;9.174;2023-10-19T12:26:17;17.10;99.90
13464;DHT22;6804;48.774;9.174;2023-10-19T12:28:45;17.10;99.90
13464;DHT22;6804;48.774;9.174;2023-10-19T12:31:14;17.00;99.90
13464;DHT22;6804;48.774;9.174;2023-10-19T12:33:45;17.00;99.90
13464;DHT22;6804;48.774;9.174;2023-10-19T12:36:18;17.00;99.90
13464;DHT22;6804;48.774;9.174;2023-10-19T12:38:59;17.00;99.90
13464;DHT22;6804;48.774;9.174;2023-10-19T12:41:29;17.00;99.90
13464;DHT22;6804;48.774;9.174;2023-10-19T12:43:58;16.90;99.90
13464;DHT22;6804;48.774;9.174;2023-10-19T12:46:28;16.80;99.90
13464;DHT22;6804;48.774;9.174;2023-10-19T12:48:56;16.70;99.90
13464;DHT22;6804;48.774;9.174;2023-10-19T12:51:46;16.70;99.90
13464;DHT22;6804;48.774;9.174;2023-10-19T12:54:14;16.70;99.90
13464;DHT22;6804;48.774;9.174;2023-10-19T12:56:47;16.70;99.90
13464;DHT22;6804;48.774;9.174;2023-10-19T12:59:19;16.70;99.90
13464;DHT22;6804;48.774;9.174;2023-10-19T13:01:47;16.80;99.90
13464;DHT22;6804;48.774;9.174;2023-10-19T13:04:20;16.80;99.90
13464;DHT22;6804;48.774;9.174;2023-10-19T13:06:51;16.80;99.90
13464;DHT22;6804;48.774;9.174;2023-10-19T13:09:26;16.80;99.90
13464;DHT22;6804;48.774;9.174;2023-10-19T13:11:58;16.80;99.90
13464;DHT22;6804;48.774;9.174;2023-10-19T13:14:29;16.80;99.90
13464;DHT22;6804;48.774;9.174;2023-10-19T13:16:57;16.90;99.90
13464;DHT22;6804;48.774;9.174;2023-10-19T13:19:27;16.90;99.90
13464;DHT22;6804;48.774;9.174;2023-10-19T13:21:58;16.90;99.90
13464;DHT22;6804;48.774;9.174;2023-10-19T13:24:31;16.90;99.90
13464;DHT22;6804;48.774;9.174;2023-10-19T13:27:07;16.90;99.90
13464;DHT22;6804;48.774;9.174;2023-10-19T13:29:39;16.90;99.90
13464;DHT22;6804;48.774;9.174;2023-10-19T13:32:07;16.90;99.90
13464;DHT22;6804;48.774;9.174;2023-10-19T13:34:35;16.80;99.90
13464;DHT22;6804;48.774;9.174;2023-10-19T13:37:06;16.90;99.90
13464;DHT22;6804;48.774;9.174;2023-10-19T13:39:34;16.90;99.90
13464;DHT22;6804;48.774;9.174;2023-10-19T13:42:06;16.90;99.90
13464;DHT22;6804;48.774;9.174;2023-10-19T13:44:35;16.90;99.90
13464;DHT22;6804;48.774;9.174;2023-10-19T13:47:05;16.90;99.90
13464;DHT22;6804;48.774;9.174;2023-10-19T13:49:40;16.90;99.90
13464;DHT22;6804;48.774;9.174;2023-10-19T13:52:10;16.90;99.90
13464;DHT22;6804;48.774;9.174;2023-10-19T13:54:41;16.90;99.90
13464;DHT22;6804;48.774;9.174;2023-10-19T13:57:11;16.90;99.90
13464;DHT22;6804;48.774;9.174;2023-10-19T13:59:40;16.80;99.90
13464;DHT22;6804;48.774;9.174;2023-10-19T14:02:10;16.80;99.90
13464;DHT22;6804;48.774;9.174;2023-10-19T14:04:40;16.80;99.90
13464;DHT22;6804;48.774;9.174;2023-10-19T14:07:10;16.80;99.90
13464;DHT22;6804;48.774;9.174;2023-10-19T14:09:39;16.90;99.90
13464;DHT22;6804;48.774;9.174;2023-10-19T14:12:11;16.80;99.90
13464;DHT22;6804;48.774;9.174;2023-10-19T14:14:39;16.90;99.90
13464;DHT22;6804;48.774;9.174;2023-10-19T14:17:07;16.90;99.90
13464;DHT22;6804;48.774;9.174;2023-10-19T14:19:35;16.90;99.90
13464;DHT22;6804;48.774;9.174;2023-10-19T14:22:11;16.90;99.90
13464;DHT22;6804;48.774;9.174;2023-10-19T14:24:41;16.90;99.90
13464;DHT22;6804;48.774;9.174;2023-10-19T14:27:08;16.80;99.90
13464;DHT22;6804;48.774;9.174;2023-10-19T14:29:39;16.80;99.90
13464;DHT22;6804;48.774;9.174;2023-10-19T14:32:07;16.80;99.90
13464;DHT22;6804;48.774;9.174;2023-10-19T14:34:34;16.80;99.90
13464;DHT22;6804;48.774;9.174;2023-10-19T14:37:04;16.90;99.90
13464;DHT22;6804;48.774;9.174;2023-10-19T14:39:35;16.80;99.90
13464;DHT22;6804;48.774;9.174;2023-10-19T14:42:03;16.80;99.90
13464;DHT22;6804;48.774;9.174;2023-10-19T14:44:30;16.80;99.90
13464;DHT22;6804;48.774;9.174;2023-10-19T14:46:58;16.70;99.90
13464;DHT22;6804;48.774;9.174;2023-10-19T14:49:26;16.60;99.90
13464;DHT22;6804;48.774;9.174;2023-10-19T14:51:54;16.50;99.90
13464;DHT22;6804;48.774;9.174;2023-10-19T14:54:22;16.40;99.90
13464;DHT22;6804;48.774;9.174;2023-10-19T14:56:51;16.50;99.90
13464;DHT22;6804;48.774;9.174;2023-10-19T14:59:19;16.40;99.90
13464;DHT22;6804;48.774;9.174;2023-10-19T15:01:47;16.40;99.90
13464;DHT22;6804;48.774;9.174;2023-10-19T15:04:15;16.50;99.90
13464;DHT22;6804;48.774;9.174;2023-10-19T15:06:43;16.50;99.90
13464;DHT22;6804;48.774;9.174;2023-10-19T15:09:10;16.50;99.90
13464;DHT22;6804;48.774;9.174;2023-10-19T15:11:53;16.50;99.90
13464;DHT22;6804;48.774;9.174;2023-10-19T15:14:21;16.50;99.90
13464;DHT22;6804;48.774;9.174;2023-10-19T15:16:51;16.50;99.90
13464;DHT22;6804;48.774;9.174;2023-10-19T15:19:18;16.60;99.90
13464;DHT22;6804;48.774;9.174;2023-10-19T15:21:50;16.60;99.90
13464;DHT22;6804;48.774;9.174;2023-10-19T15:24:18;16.50;99.90
13464;DHT22;6804;48.774;9.174;2023-10-19T15:26:50;16.50;99.90
13464;DHT22;6804;48.774;9.174;2023-10-19T15:29:23;16.40;99.90
13464;DHT22;6804;48.774;9.174;2023-10-19T15:31:51;16.40;99.90
13464;DHT22;6804;48.774;9.174;2023-10-19T15:34:22;16.40;99.90
13464;DHT22;6804;48.774;9.174;2023-10-19T15:36:50;16.50;99.90
13464;DHT22;6804;48.774;9.174;2023-10-19T15:39:36;16.50;99.90
13464;DHT22;6804;48.774;9.174;2023-10-19T15:42:10;16.50;99.90
13464;DHT22;6804;48.774;9.174;2023-10-19T15:45:03;16.50;99.90
13464;DHT22;6804;48.774;9.174;2023-10-19T15:47:34;16.50;99.90
13464;DHT22;6804;48.774;9.174;2023-10-19T15:50:01;16.60;99.90
13464;DHT22;6804;48.774;9.174;2023-10-19T15:52:30;16.60;99.90
13464;DHT22;6804;48.774;9.174;2023-10-19T15:54:58;16.60;99.90
13464;DHT22;6804;48.774;9.174;2023-10-19T15:57:26;16.60;99.90
13464;DHT22;6804;48.774;9.174;2023-10-19T16:00:01;16.60;99.90
13464;DHT22;6804;48.774;9.174;2023-10-19T16:02:33;16.60;99.90
13464;DHT22;6804;48.774;9.174;2023-10-19T16:05:01;16.50;99.90
13464;DHT22;6804;48.774;9.174;2023-10-19T16:07:32;16.50;99.90
13464;DHT22;6804;48.774;9.174;2023-10-19T16:10:02;16.50;99.90
13464;DHT22;6804;48.774;9.174;2023-10-19T16:12:32;16.50;99.90
13464;DHT22;6804;48.774;9.174;2023-10-19T16:15:04;16.50;99.90